Time;durP1;ratioP1;P1;durP2;ratioP2;P2;SDS_P1;SDS_P2;PMS_P1;PMS_P2;Temp;Humidity;BMP_temperature;BMP_pressure;BME280_temperature;BME280_humidity;BME280_pressure;Samples;Min_cycle;Max_cycle;Signal;HPM_P1;HPM_P2
2021/07/06 00:02:25;;;;;;;0.00;0.00;;;16.80;99.90;;;;;;4970152;28;20280;-77
2021/07/06 00:04:59;;;;;;;0.00;0.00;;;16.80;99.90;;;;;;4970121;28;20292;-75
2021/07/06 00:07:26;;;;;;;0.00;0.00;;;16.90;99.90;;;;;;4970580;28;20245;-76
2021/07/06 00:09:53;;;;;;;0.00;0.00;;;16.90;99.90;;;;;;4970593;28;20260;-75
2021/07/06 00:12:22;;;;;;;0.00;0.00;;;16.90;99.90;;;;;;4967559;28;20210;-77
2021/07/06 00:14:49;;;;;;;0.00;0.00;;;16.90;99.90;;;;;;4957551;28;20277;-78
2021/07/06 00:17:16;;;;;;;0.00;0.00;;;16.90;99.90;;;;;;4970009;28;20257;-79
2021/07/06 00:19:43;;;;;;;0.87;0.87;;;16.90;99.90;;;;;;4957612;28;20211;-77
2021/07/06 00:22:10;;;;;;;0.53;0.40;;;16.90;99.90;;;;;;4951005;29;20226;-77
2021/07/06 00:24:37;;;;;;;0.20;0.20;;;17.00;99.90;;;;;;4950921;29;20195;-78
2021/07/06 00:27:04;;;;;;;0.10;0.10;;;17.00;99.90;;;;;;4949689;29;20641;-78
2021/07/06 00:29:34;;;;;;;0.17;0.17;;;17.00;99.90;;;;;;4931933;29;20207;-80
2021/07/06 00:32:01;;;;;;;0.20;0.00;;;17.10;99.90;;;;;;4931632;29;20207;-78
2021/07/06 00:34:28;;;;;;;0.00;0.00;;;17.10;99.90;;;;;;4947595;29;20266;-77
2021/07/06 00:36:55;;;;;;;0.43;0.30;;;17.10;99.90;;;;;;4950831;29;20258;-78
2021/07/06 00:39:22;;;;;;;0.97;0.43;;;17.20;99.90;;;;;;4950917;29;20195;-80
2021/07/06 00:41:49;;;;;;;0.00;0.00;;;17.20;99.90;;;;;;4958677;28;20595;-81
2021/07/06 00:44:17;;;;;;;0.00;0.00;;;17.20;99.90;;;;;;4950072;29;20250;-78
2021/07/06 00:46:45;;;;;;;0.07;0.00;;;17.20;99.90;;;;;;4950515;29;20590;-76
2021/07/06 00:49:13;;;;;;;0.00;0.00;;;17.20;99.90;;;;;;4949594;28;20203;-79
2021/07/06 00:51:40;;;;;;;0.50;0.50;;;17.20;99.90;;;;;;4950502;29;20203;-76
2021/07/06 00:54:07;;;;;;;0.00;0.00;;;17.20;99.90;;;;;;4950763;28;20254;-79
2021/07/06 00:56:37;;;;;;;0.20;0.20;;;17.20;99.90;;;;;;4962993;28;20202;-78
2021/07/06 00:59:04;;;;;;;0.00;0.00;;;17.20;99.90;;;;;;4973825;28;20622;-78
2021/07/06 01:01:31;;;;;;;0.00;0.00;;;17.20;99.90;;;;;;4973518;28;20195;-78
2021/07/06 01:04:00;;;;;;;0.10;0.10;;;17.20;99.90;;;;;;4958803;28;20823;-76
2021/07/06 01:06:27;;;;;;;0.00;0.00;;;17.20;99.90;;;;;;4969125;28;20548;-76
2021/07/06 01:08:54;;;;;;;0.00;0.00;;;17.20;99.90;;;;;;4970453;28;20198;-76
2021/07/06 01:11:21;;;;;;;0.00;0.00;;;17.20;99.90;;;;;;4954049;29;20254;-77
2021/07/06 01:13:49;;;;;;;0.00;0.00;;;17.20;99.90;;;;;;4953815;29;20748;-78
2021/07/06 01:16:16;;;;;;;0.30;0.20;;;17.20;99.90;;;;;;4953803;29;20664;-77
2021/07/06 01:18:44;;;;;;;0.00;0.00;;;17.10;99.90;;;;;;4964701;28;20265;-77
2021/07/06 01:21:13;;;;;;;0.00;0.00;;;17.10;99.90;;;;;;4968421;28;20195;-77
2021/07/06 01:23:42;;;;;;;0.00;0.00;;;17.10;99.90;;;;;;4970571;28;20695;-76
2021/07/06 01:26:09;;;;;;;0.00;0.00;;;17.10;99.90;;;;;;4972872;28;20675;-77
2021/07/06 01:28:38;;;;;;;0.00;0.00;;;17.10;99.90;;;;;;4958352;28;20352;-77
2021/07/06 01:31:06;;;;;;;0.00;0.00;;;17.10;99.90;;;;;;4934988;29;20222;-78
2021/07/06 01:33:35;;;;;;;0.00;0.00;;;17.00;99.90;;;;;;4946117;28;20271;-75
2021/07/06 01:36:07;;;;;;;0.00;0.00;;;17.00;99.90;;;;;;4961547;28;20203;-76
2021/07/06 01:38:34;;;;;;;0.00;0.00;;;17.00;99.90;;;;;;4953746;29;20199;-78
2021/07/06 01:41:04;;;;;;;0.00;0.00;;;17.00;99.90;;;;;;4953503;29;20771;-77
2021/07/06 01:43:31;;;;;;;0.10;0.10;;;16.90;99.90;;;;;;4953666;29;20634;-79
2021/07/06 01:45:58;;;;;;;0.00;0.00;;;16.90;99.90;;;;;;4953410;29;20199;-75
2021/07/06 01:48:25;;;;;;;0.00;0.00;;;16.90;99.90;;;;;;4952631;29;20207;-77
2021/07/06 01:50:52;;;;;;;0.10;0.10;;;16.90;99.90;;;;;;4962441;28;20206;-78
2021/07/06 01:53:22;;;;;;;0.10;0.10;;;16.90;99.90;;;;;;4972669;28;20640;-78
2021/07/06 01:55:50;;;;;;;0.00;0.00;;;16.90;99.90;;;;;;4972740;28;20198;-79
2021/07/06 01:58:21;;;;;;;0.00;0.00;;;16.90;99.90;;;;;;4962202;28;20199;-78
2021/07/06 02:00:50;;;;;;;0.10;0.10;;;16.90;99.90;;;;;;4952994;29;20255;-78
2021/07/06 02:03:18;;;;;;;0.00;0.00;;;16.90;99.90;;;;;;4952111;29;20218;-77
2021/07/06 02:05:47;;;;;;;0.00;0.00;;;16.90;99.90;;;;;;4966857;28;20233;-76
2021/07/06 02:08:16;;;;;;;0.00;0.00;;;16.90;99.90;;;;;;4965535;28;20213;-73
2021/07/06 02:10:45;;;;;;;0.00;0.00;;;16.90;99.90;;;;;;4968362;28;20736;-77
2021/07/06 02:13:13;;;;;;;0.00;0.00;;;16.90;99.90;;;;;;4952191;28;20719;-77
2021/07/06 02:15:43;;;;;;;0.00;0.00;;;16.90;99.90;;;;;;4953092;29;20205;-76
2021/07/06 02:18:15;;;;;;;0.00;0.00;;;17.00;99.90;;;;;;4953015;29;20199;-78
2021/07/06 02:20:42;;;;;;;0.00;0.00;;;17.00;99.90;;;;;;4952724;29;20704;-76
2021/07/06 02:23:09;;;;;;;0.07;0.07;;;17.00;99.90;;;;;;4952527;29;20566;-77
2021/07/06 02:25:36;;;;;;;0.00;0.00;;;17.00;99.90;;;;;;4951740;29;20677;-73
2021/07/06 02:28:03;;;;;;;0.00;0.00;;;17.00;99.90;;;;;;4960611;28;20199;-76
2021/07/06 02:30:30;;;;;;;0.00;0.00;;;17.00;99.90;;;;;;4950629;28;20203;-75
2021/07/06 02:32:59;;;;;;;0.00;0.00;;;17.00;99.90;;;;;;4951532;28;20677;-76
2021/07/06 02:35:27;;;;;;;0.00;0.00;;;17.00;99.90;;;;;;4951475;29;20249;-77
2021/07/06 02:37:55;;;;;;;0.00;0.00;;;17.00;99.90;;;;;;4952333;29;20230;-78
2021/07/06 02:40:23;;;;;;;0.00;0.00;;;17.00;99.90;;;;;;4952526;29;20230;-79
2021/07/06 02:42:50;;;;;;;0.10;0.10;;;17.00;99.90;;;;;;4952400;29;20219;-78
2021/07/06 02:45:18;;;;;;;0.00;0.00;;;17.00;99.90;;;;;;4967202;28;20205;-78
2021/07/06 02:47:47;;;;;;;0.00;0.00;;;17.10;99.90;;;;;;4968122;28;22337;-76
2021/07/06 02:50:17;;;;;;;0.00;0.00;;;17.00;99.90;;;;;;4932985;29;20208;-75
2021/07/06 02:52:44;;;;;;;0.00;0.00;;;17.10;99.90;;;;;;4933138;29;20247;-76
2021/07/06 02:55:13;;;;;;;0.00;0.00;;;17.10;99.90;;;;;;4933269;29;20207;-76
2021/07/06 02:57:40;;;;;;;0.00;0.00;;;17.10;99.90;;;;;;4938498;28;20716;-77
2021/07/06 03:00:11;;;;;;;0.00;0.00;;;17.10;99.90;;;;;;4967179;28;20261;-76
2021/07/06 03:02:39;;;;;;;0.00;0.00;;;17.10;99.90;;;;;;4969124;28;20249;-79
2021/07/06 03:05:08;;;;;;;0.00;0.00;;;17.10;99.90;;;;;;4951474;29;20238;-78
2021/07/06 03:07:37;;;;;;;0.00;0.00;;;17.10;99.90;;;;;;4952054;29;20207;-75
2021/07/06 03:10:05;;;;;;;0.00;0.00;;;17.10;99.90;;;;;;4952267;29;20262;-78
2021/07/06 03:12:32;;;;;;;0.00;0.00;;;17.20;99.90;;;;;;4950013;28;20586;-78
2021/07/06 03:14:59;;;;;;;0.00;0.00;;;17.20;99.90;;;;;;4953436;28;20203;-79
2021/07/06 03:17:26;;;;;;;0.00;0.00;;;17.20;99.90;;;;;;4955569;28;20207;-74
2021/07/06 03:19:53;;;;;;;0.00;0.00;;;17.20;99.90;;;;;;4951835;29;20270;-76
2021/07/06 03:22:20;;;;;;;0.00;0.00;;;17.20;99.90;;;;;;4951537;28;20614;-78
2021/07/06 03:24:48;;;;;;;0.00;0.00;;;17.20;99.90;;;;;;4960708;28;20735;-77
2021/07/06 03:27:15;;;;;;;0.00;0.00;;;17.20;99.90;;;;;;4959922;28;20204;-77
2021/07/06 03:29:42;;;;;;;0.00;0.00;;;17.20;99.90;;;;;;4951637;29;20198;-79
2021/07/06 03:32:10;;;;;;;0.00;0.00;;;17.20;99.90;;;;;;4949735;29;20207;-78
2021/07/06 03:34:37;;;;;;;0.00;0.00;;;17.20;99.90;;;;;;4943766;29;20203;-77
2021/07/06 03:37:04;;;;;;;0.20;0.20;;;17.20;99.90;;;;;;4950934;29;20211;-73
2021/07/06 03:39:32;;;;;;;0.43;0.10;;;17.30;99.90;;;;;;4962110;28;20261;-77
2021/07/06 03:42:00;;;;;;;0.00;0.00;;;17.30;99.90;;;;;;4970413;28;20234;-79
2021/07/06 03:44:27;;;;;;;0.00;0.00;;;17.40;99.90;;;;;;4970651;28;20222;-77
2021/07/06 03:46:54;;;;;;;0.20;0.20;;;17.40;99.90;;;;;;4970821;28;20657;-75
2021/07/06 03:49:21;;;;;;;0.00;0.00;;;17.40;99.90;;;;;;4952501;28;20612;-78
2021/07/06 03:51:48;;;;;;;0.00;0.00;;;17.50;99.90;;;;;;4968786;28;20203;-80
2021/07/06 03:54:15;;;;;;;0.00;0.00;;;17.40;99.90;;;;;;4970594;28;20276;-78
2021/07/06 03:56:42;;;;;;;0.00;0.00;;;17.50;99.90;;;;;;4968599;28;20651;-77
2021/07/06 03:59:10;;;;;;;0.13;0.13;;;17.50;99.90;;;;;;4951178;29;20203;-77
2021/07/06 04:01:37;;;;;;;0.00;0.00;;;17.50;99.90;;;;;;4951185;29;20340;-77
2021/07/06 04:04:05;;;;;;;0.30;0.23;;;17.50;99.90;;;;;;4949646;29;20219;-77
2021/07/06 04:06:32;;;;;;;0.10;0.10;;;17.50;99.90;;;;;;4957402;28;20286;-73
2021/07/06 04:08:59;;;;;;;0.00;0.00;;;17.50;99.90;;;;;;4950618;29;20290;-74
2021/07/06 04:11:26;;;;;;;0.00;0.00;;;17.50;99.90;;;;;;4951407;29;20712;-75
2021/07/06 04:13:53;;;;;;;0.63;0.53;;;17.50;99.90;;;;;;4951479;29;20195;-73
2021/07/06 04:16:22;;;;;;;0.23;0.23;;;17.50;99.90;;;;;;4951163;29;20588;-73
2021/07/06 04:18:49;;;;;;;0.40;0.40;;;17.50;99.90;;;;;;4950493;28;20207;-78
2021/07/06 04:21:16;;;;;;;0.00;0.00;;;17.60;99.90;;;;;;4965404;28;20261;-72
2021/07/06 04:23:43;;;;;;;0.00;0.00;;;17.60;99.90;;;;;;4969261;28;20234;-78
2021/07/06 04:26:10;;;;;;;0.00;0.00;;;17.60;99.90;;;;;;4949567;28;20231;-71
2021/07/06 04:28:37;;;;;;;0.03;0.03;;;17.70;99.90;;;;;;4950164;29;20203;-74
2021/07/06 04:31:04;;;;;;;0.63;0.43;;;17.70;99.90;;;;;;4954394;28;20198;-78
2021/07/06 04:33:32;;;;;;;0.00;0.00;;;17.70;99.90;;;;;;4953905;28;20266;-74
2021/07/06 04:35:59;;;;;;;0.00;0.00;;;17.70;99.90;;;;;;4955015;29;20257;-74
2021/07/06 04:38:26;;;;;;;0.00;0.00;;;17.70;99.90;;;;;;4954866;29;20257;-79
2021/07/06 04:40:55;;;;;;;0.00;0.00;;;17.70;99.90;;;;;;4973082;28;20769;-77
2021/07/06 04:43:22;;;;;;;0.40;0.20;;;17.70;99.90;;;;;;4973645;28;20229;-73
2021/07/06 04:45:49;;;;;;;0.00;0.00;;;17.60;99.90;;;;;;4961201;28;20208;-73
2021/07/06 04:48:16;;;;;;;0.10;0.10;;;17.60;99.90;;;;;;4944256;29;20211;-79
2021/07/06 04:50:45;;;;;;;0.23;0.23;;;17.60;99.90;;;;;;4954182;29;20198;-76
2021/07/06 04:53:12;;;;;;;0.00;0.00;;;17.50;99.90;;;;;;4958490;28;20577;-79
2021/07/06 04:55:40;;;;;;;0.87;0.87;;;17.40;99.90;;;;;;4973566;28;20202;-73
2021/07/06 04:58:07;;;;;;;0.00;0.00;;;17.40;99.90;;;;;;4960722;28;20203;-78
2021/07/06 05:00:34;;;;;;;0.23;0.23;;;17.30;99.90;;;;;;4953041;29;21003;-77
2021/07/06 05:03:01;;;;;;;0.20;0.20;;;17.20;99.90;;;;;;4953216;28;20258;-80
2021/07/06 05:05:28;;;;;;;0.07;0.07;;;17.20;99.90;;;;;;4953894;29;20810;-76
2021/07/06 05:07:57;;;;;;;0.00;0.00;;;17.20;99.90;;;;;;4954118;29;20206;-73
2021/07/06 05:10:24;;;;;;;0.00;0.00;;;17.20;99.90;;;;;;4957145;28;20253;-73
2021/07/06 05:12:51;;;;;;;0.00;0.00;;;17.20;99.90;;;;;;4966480;28;20199;-79
2021/07/06 05:15:18;;;;;;;0.00;0.00;;;17.20;99.90;;;;;;4964806;28;20261;-76
2021/07/06 05:17:46;;;;;;;0.00;0.00;;;17.20;99.90;;;;;;4973304;28;20207;-70
2021/07/06 05:20:14;;;;;;;0.00;0.00;;;17.20;99.90;;;;;;4973036;28;20289;-72
2021/07/06 05:22:41;;;;;;;0.10;0.10;;;17.10;99.90;;;;;;4972850;28;20261;-78
2021/07/06 05:25:11;;;;;;;0.00;0.00;;;17.10;99.90;;;;;;4972762;28;20229;-78
2021/07/06 05:27:38;;;;;;;0.00;0.00;;;17.00;99.90;;;;;;4964212;28;20207;-75
2021/07/06 05:30:07;;;;;;;0.00;0.00;;;17.00;99.90;;;;;;4964327;28;20198;-78
2021/07/06 05:32:38;;;;;;;0.00;0.00;;;16.90;99.90;;;;;;4970710;28;20322;-78
2021/07/06 05:35:06;;;;;;;0.10;0.10;;;16.90;99.90;;;;;;4954209;28;20253;-78
2021/07/06 05:37:33;;;;;;;0.00;0.00;;;16.80;99.90;;;;;;4953456;29;20199;-80
2021/07/06 05:40:00;;;;;;;0.00;0.00;;;16.80;99.90;;;;;;4953702;29;20206;-79
2021/07/06 05:42:28;;;;;;;0.00;0.00;;;16.80;99.90;;;;;;4951533;28;20211;-76
2021/07/06 05:44:55;;;;;;;0.10;0.10;;;16.80;99.90;;;;;;4953339;29;20238;-74
2021/07/06 05:47:22;;;;;;;0.00;0.00;;;16.80;99.90;;;;;;4960509;28;20195;-79
2021/07/06 05:49:49;;;;;;;0.00;0.00;;;16.80;99.90;;;;;;4972726;28;20265;-75
2021/07/06 05:52:16;;;;;;;0.00;0.00;;;16.80;99.90;;;;;;4968004;28;20265;-70
2021/07/06 05:54:43;;;;;;;0.00;0.00;;;16.70;99.90;;;;;;4971398;28;20206;-74
2021/07/06 05:57:10;;;;;;;0.00;0.00;;;16.70;99.90;;;;;;4958883;28;20564;-76
2021/07/06 05:59:38;;;;;;;0.00;0.00;;;16.60;99.90;;;;;;4951317;29;20271;-78
2021/07/06 06:02:05;;;;;;;0.10;0.10;;;16.60;99.90;;;;;;4950985;28;20708;-76
2021/07/06 06:04:32;;;;;;;0.00;0.00;;;16.70;99.90;;;;;;4952975;29;20241;-71
2021/07/06 06:06:59;;;;;;;0.03;0.03;;;16.70;99.90;;;;;;4952550;29;20191;-70
2021/07/06 06:09:26;;;;;;;0.00;0.00;;;16.70;99.90;;;;;;4952461;29;20210;-72
2021/07/06 06:11:53;;;;;;;0.00;0.00;;;16.80;99.90;;;;;;4947924;28;20242;-72
2021/07/06 06:14:20;;;;;;;0.00;0.00;;;16.90;99.90;;;;;;4947896;28;20211;-71
2021/07/06 06:16:48;;;;;;;0.00;0.00;;;16.80;99.90;;;;;;4950609;29;20211;-74
2021/07/06 06:19:15;;;;;;;0.00;0.00;;;16.90;99.90;;;;;;4951511;28;20203;-78
2021/07/06 06:21:42;;;;;;;0.60;0.53;;;16.90;99.90;;;;;;4945202;28;20235;-75
2021/07/06 06:24:09;;;;;;;0.00;0.00;;;17.00;99.90;;;;;;4951270;29;20231;-76
2021/07/06 06:26:36;;;;;;;0.13;0.13;;;17.20;99.90;;;;;;4962642;28;20544;-78
2021/07/06 06:29:03;;;;;;;0.00;0.00;;;17.40;99.90;;;;;;4952056;28;20215;-77
2021/07/06 06:31:30;;;;;;;0.00;0.00;;;17.60;99.90;;;;;;4952194;29;20342;-72
2021/07/06 06:33:59;;;;;;;0.00;0.00;;;17.70;99.90;;;;;;4952318;29;20234;-77
2021/07/06 06:36:26;;;;;;;0.00;0.00;;;18.00;99.90;;;;;;4950262;29;20195;-78
2021/07/06 06:38:53;;;;;;;0.03;0.03;;;18.20;99.90;;;;;;4950546;29;20199;-73
2021/07/06 06:41:20;;;;;;;0.00;0.00;;;18.60;99.90;;;;;;4951802;28;20265;-74
2021/07/06 06:43:47;;;;;;;0.43;0.03;;;18.70;99.90;;;;;;4946211;28;20270;-74
2021/07/06 06:46:14;;;;;;;0.00;0.00;;;18.70;99.90;;;;;;4936879;28;20202;-74
2021/07/06 06:48:41;;;;;;;0.00;0.00;;;18.90;99.90;;;;;;4949781;28;20273;-79
2021/07/06 06:51:11;;;;;;;0.00;0.00;;;19.00;99.90;;;;;;4960049;28;20210;-80
2021/07/06 06:53:38;;;;;;;0.00;0.00;;;19.20;99.90;;;;;;4952370;28;20199;-73
2021/07/06 06:56:05;;;;;;;0.00;0.00;;;19.40;99.90;;;;;;4948248;28;20653;-79
2021/07/06 06:58:32;;;;;;;0.00;0.00;;;19.60;99.90;;;;;;4951250;28;20195;-69
2021/07/06 07:00:59;;;;;;;1.07;0.17;;;19.80;99.90;;;;;;4942793;28;20208;-77
2021/07/06 07:03:26;;;;;;;0.00;0.00;;;19.90;99.90;;;;;;4947801;29;20211;-80
2021/07/06 07:05:54;;;;;;;0.00;0.00;;;19.90;99.90;;;;;;4949902;29;20246;-77
2021/07/06 07:08:22;;;;;;;0.00;0.00;;;20.10;99.90;;;;;;4948776;28;20199;-78
2021/07/06 07:10:50;;;;;;;0.00;0.00;;;20.20;99.90;;;;;;4949703;29;20199;-75
2021/07/06 07:13:17;;;;;;;0.00;0.00;;;20.10;99.90;;;;;;4947349;28;20203;-70
2021/07/06 07:15:44;;;;;;;0.00;0.00;;;20.10;99.90;;;;;;4956256;28;20206;-73
2021/07/06 07:18:11;;;;;;;0.10;0.10;;;20.30;99.90;;;;;;4970949;28;20253;-74
2021/07/06 07:20:38;;;;;;;0.15;0.15;;;20.50;99.90;;;;;;4948149;28;20905;-76
2021/07/06 07:23:05;;;;;;;0.90;0.40;;;20.60;99.90;;;;;;4951512;29;20285;-76
2021/07/06 07:25:34;;;;;;;0.00;0.00;;;20.50;99.90;;;;;;4951628;29;20320;-72
2021/07/06 07:28:01;;;;;;;0.00;0.00;;;20.40;99.90;;;;;;4951863;28;20258;-78
2021/07/06 07:30:28;;;;;;;0.68;0.63;;;20.20;99.90;;;;;;4950451;28;20266;-74
2021/07/06 07:32:55;;;;;;;0.03;0.03;;;20.00;99.90;;;;;;4949595;29;20207;-74
2021/07/06 07:35:22;;;;;;;0.00;0.00;;;20.00;99.90;;;;;;4951395;29;20199;-73
2021/07/06 07:37:49;;;;;;;0.00;0.00;;;20.00;99.90;;;;;;4950345;29;20206;-72
2021/07/06 07:40:18;;;;;;;0.00;0.00;;;20.20;99.90;;;;;;4948393;29;20205;-73
2021/07/06 07:42:48;;;;;;;1.17;0.10;;;20.30;99.90;;;;;;4952042;28;20218;-72
2021/07/06 07:45:16;;;;;;;0.00;0.00;;;20.40;99.90;;;;;;4950543;28;20230;-75
2021/07/06 07:47:43;;;;;;;0.00;0.00;;;20.30;99.90;;;;;;4953603;28;20708;-72
2021/07/06 07:50:11;;;;;;;0.00;0.00;;;20.20;99.90;;;;;;4948711;29;20266;-72
2021/07/06 07:52:38;;;;;;;0.00;0.00;;;20.00;99.90;;;;;;4949538;28;20199;-73
2021/07/06 07:55:07;;;;;;;0.00;0.00;;;19.90;99.90;;;;;;4949301;28;20206;-72
2021/07/06 07:57:34;;;;;;;0.00;0.00;;;19.80;99.90;;;;;;4948568;28;20630;-70
2021/07/06 08:00:05;;;;;;;0.23;0.20;;;19.70;99.90;;;;;;4947456;28;20578;-76
2021/07/06 08:02:32;;;;;;;0.00;0.00;;;19.60;99.90;;;;;;4947955;28;20311;-69
2021/07/06 08:04:59;;;;;;;0.10;0.10;;;19.60;99.90;;;;;;4949037;28;20268;-74
2021/07/06 08:07:27;;;;;;;0.00;0.00;;;19.40;99.90;;;;;;4943988;28;20199;-71
2021/07/06 08:09:55;;;;;;;0.00;0.00;;;19.30;99.90;;;;;;4949066;29;20210;-72
2021/07/06 08:12:22;;;;;;;0.10;0.10;;;19.30;99.90;;;;;;4945995;28;20202;-74
2021/07/06 08:14:50;;;;;;;0.00;0.00;;;19.20;99.90;;;;;;4948698;29;20199;-75
2021/07/06 08:17:19;;;;;;;0.10;0.10;;;19.40;99.90;;;;;;4948627;28;20199;-70
2021/07/06 08:19:47;;;;;;;4.37;0.40;;;19.40;99.90;;;;;;4946777;28;20195;-72
2021/07/06 08:22:14;;;;;;;0.23;0.23;;;19.30;99.90;;;;;;4953917;28;20887;-76
2021/07/06 08:24:41;;;;;;;0.10;0.10;;;19.50;99.90;;;;;;4947127;28;20231;-76
2021/07/06 08:27:08;;;;;;;0.00;0.00;;;19.70;99.90;;;;;;4949239;29;20202;-67
2021/07/06 08:29:35;;;;;;;4.70;0.37;;;20.00;99.90;;;;;;4945478;29;20207;-71
2021/07/06 08:32:02;;;;;;;0.13;0.13;;;20.30;99.90;;;;;;4956268;28;20199;-74
2021/07/06 08:34:30;;;;;;;0.00;0.00;;;20.40;99.90;;;;;;4948105;28;20214;-74
2021/07/06 08:36:57;;;;;;;0.00;0.00;;;20.50;99.90;;;;;;4948265;29;20206;-72
2021/07/06 08:39:24;;;;;;;0.10;0.10;;;20.50;99.90;;;;;;4946820;29;20860;-73
2021/07/06 08:41:51;;;;;;;0.50;0.50;;;20.60;99.90;;;;;;4946692;29;20211;-74
2021/07/06 08:44:20;;;;;;;0.20;0.10;;;20.50;99.90;;;;;;4947680;28;20205;-74
2021/07/06 08:46:49;;;;;;;1.80;0.20;;;20.30;99.90;;;;;;4937538;28;20218;-73
2021/07/06 08:49:19;;;;;;;0.00;0.00;;;20.20;99.90;;;;;;4955559;28;20649;-74
2021/07/06 08:51:50;;;;;;;0.00;0.00;;;20.00;99.90;;;;;;4948925;29;20266;-74
2021/07/06 08:54:17;;;;;;;0.00;0.00;;;19.90;99.90;;;;;;4948389;29;20560;-73
2021/07/06 08:56:44;;;;;;;0.00;0.00;;;20.00;99.90;;;;;;4943044;28;20207;-76
2021/07/06 08:59:11;;;;;;;9.33;0.67;;;20.20;99.90;;;;;;4949701;29;20207;-72
2021/07/06 09:01:38;;;;;;;0.00;0.00;;;20.50;99.90;;;;;;4949456;29;20266;-72
2021/07/06 09:04:06;;;;;;;0.17;0.17;;;20.60;99.90;;;;;;4948953;29;20656;-73
2021/07/06 09:06:54;;;;;;;0.00;0.00;;;20.80;99.90;;;;;;4945991;29;20235;-70
2021/07/06 09:09:23;;;;;;;0.00;0.00;;;20.80;99.90;;;;;;4931101;29;20191;-71
2021/07/06 09:11:52;;;;;;;0.10;0.10;;;20.60;99.90;;;;;;4942137;28;20207;-73
2021/07/06 09:14:20;;;;;;;0.00;0.00;;;20.30;99.90;;;;;;4950460;29;20733;-70
2021/07/06 09:16:50;;;;;;;1.17;0.53;;;20.00;99.90;;;;;;4950786;28;20285;-74
2021/07/06 09:19:18;;;;;;;0.30;0.30;;;19.80;99.90;;;;;;4952886;29;20210;-73
2021/07/06 09:21:46;;;;;;;0.00;0.00;;;19.70;99.90;;;;;;4954386;28;20242;-71
2021/07/06 09:24:25;;;;;;;0.00;0.00;;;19.60;99.90;;;;;;4953766;29;20203;-71
2021/07/06 09:26:52;;;;;;;0.17;0.10;;;19.60;99.90;;;;;;4949962;28;20281;-72
2021/07/06 09:29:24;;;;;;;0.07;0.07;;;19.60;99.90;;;;;;4951788;29;20210;-73
2021/07/06 09:31:52;;;;;;;2.27;0.57;;;19.50;99.90;;;;;;4950294;29;20222;-70
2021/07/06 09:34:19;;;;;;;0.10;0.10;;;19.60;99.90;;;;;;4949269;28;20293;-68
2021/07/06 09:36:48;;;;;;;0.10;0.10;;;19.60;99.90;;;;;;4949061;28;20203;-72
2021/07/06 09:39:18;;;;;;;0.00;0.00;;;19.70;99.90;;;;;;4951427;28;20207;-73
2021/07/06 09:41:56;;;;;;;0.00;0.00;;;19.70;99.90;;;;;;4955840;28;20199;-71
2021/07/06 09:44:26;;;;;;;0.00;0.00;;;19.60;99.90;;;;;;4952638;28;20218;-68
2021/07/06 09:46:55;;;;;;;6.23;1.60;;;19.50;99.90;;;;;;4950113;29;20211;-70
2021/07/06 09:49:26;;;;;;;0.00;0.00;;;19.30;99.90;;;;;;4952383;29;20269;-71
2021/07/06 09:51:54;;;;;;;0.00;0.00;;;19.10;99.90;;;;;;4951694;28;20245;-68
2021/07/06 09:54:25;;;;;;;0.00;0.00;;;18.90;99.90;;;;;;4950358;28;20287;-74
2021/07/06 09:57:03;;;;;;;0.00;0.00;;;18.90;99.90;;;;;;4953234;29;20203;-71
2021/07/06 09:59:30;;;;;;;0.00;0.00;;;18.90;99.90;;;;;;4950928;29;20237;-71
2021/07/06 10:01:59;;;;;;;0.10;0.10;;;19.20;99.90;;;;;;4949689;29;20199;-73
2021/07/06 10:04:37;;;;;;;0.20;0.20;;;19.60;99.90;;;;;;4955258;28;20233;-73
2021/07/06 10:07:06;;;;;;;0.00;0.00;;;19.70;99.90;;;;;;4954978;28;20204;-74
2021/07/06 10:09:34;;;;;;;0.00;0.00;;;19.60;99.90;;;;;;4950499;29;20656;-75
2021/07/06 10:12:03;;;;;;;0.00;0.00;;;19.50;99.90;;;;;;4951882;28;20691;-73
2021/07/06 10:14:30;;;;;;;0.00;0.00;;;19.30;99.90;;;;;;4952785;29;20203;-75
2021/07/06 10:16:57;;;;;;;0.07;0.07;;;19.20;99.90;;;;;;4952518;29;20199;-74
2021/07/06 10:19:30;;;;;;;0.00;0.00;;;19.10;99.90;;;;;;4955156;28;20199;-76
2021/07/06 10:21:58;;;;;;;0.33;0.20;;;18.90;99.90;;;;;;4953165;29;20238;-75
2021/07/06 10:24:25;;;;;;;0.00;0.00;;;18.80;99.90;;;;;;4959552;28;20210;-73
2021/07/06 10:26:59;;;;;;;0.00;0.00;;;18.60;99.90;;;;;;4971616;28;20233;-75
2021/07/06 10:29:34;;;;;;;0.00;0.00;;;18.50;99.90;;;;;;4971826;28;20194;-72
2021/07/06 10:32:02;;;;;;;0.30;0.30;;;18.50;99.90;;;;;;4961146;28;20222;-73
2021/07/06 10:34:29;;;;;;;5.40;0.60;;;18.80;99.90;;;;;;4951420;29;20419;-75
2021/07/06 10:36:59;;;;;;;0.00;0.00;;;18.80;99.90;;;;;;4957779;28;20258;-70
2021/07/06 10:39:45;;;;;;;0.00;0.00;;;18.70;99.90;;;;;;4952161;29;20712;-72
2021/07/06 10:42:12;;;;;;;0.10;0.10;;;18.70;99.90;;;;;;4952356;29;20230;-70
2021/07/06 10:44:42;;;;;;;1.73;1.63;;;18.60;99.90;;;;;;4950425;28;20210;-68
2021/07/06 10:47:37;;;;;;;0.63;0.57;;;18.60;99.90;;;;;;4971152;28;20695;-69
2021/07/06 10:50:51;;;;;;;0.00;0.00;;;18.40;99.90;;;;;;4945629;28;20195;-67
2021/07/06 10:53:21;;;;;;;0.00;0.00;;;18.40;99.90;;;;;;4892153;29;20206;-72
2021/07/06 10:56:01;;;;;;;0.00;0.00;;;18.60;99.90;;;;;;4934332;29;20211;-71
2021/07/06 10:58:50;;;;;;;0.00;0.00;;;18.60;99.90;;;;;;4943679;29;20215;-70
2021/07/06 11:01:59;;;;;;;0.00;0.00;;;18.60;99.90;;;;;;4941142;28;20581;-69
2021/07/06 11:05:10;;;;;;;0.20;0.20;;;18.70;99.90;;;;;;4939836;28;20235;-67
2021/07/06 11:07:58;;;;;;;0.00;0.00;;;18.70;99.90;;;;;;4941700;29;20199;-70
2021/07/06 11:10:40;;;;;;;1.80;0.20;;;18.60;99.90;;;;;;4942068;29;20234;-70
2021/07/06 11:13:28;;;;;;;0.10;0.00;;;18.40;99.90;;;;;;4939966;29;20335;-72
2021/07/06 11:15:58;;;;;;;0.00;0.00;;;18.40;99.90;;;;;;4930590;29;20211;-66
2021/07/06 11:18:41;;;;;;;0.30;0.30;;;18.40;99.90;;;;;;4940326;28;20214;-70
2021/07/06 11:21:43;;;;;;;0.00;0.00;;;18.20;99.90;;;;;;4940232;29;20197;-70
2021/07/06 11:24:13;;;;;;;0.13;0.13;;;18.10;99.90;;;;;;4931047;29;20234;-73
2021/07/06 11:26:42;;;;;;;0.07;0.07;;;18.10;99.90;;;;;;4944228;29;20227;-66
2021/07/06 11:29:09;;;;;;;1.60;0.50;;;18.10;99.90;;;;;;4942931;28;20559;-72
2021/07/06 11:31:36;;;;;;;1.40;0.20;;;18.10;99.90;;;;;;4955089;28;20567;-70
2021/07/06 11:34:05;;;;;;;0.27;0.27;;;18.20;99.90;;;;;;4941094;29;20195;-67
2021/07/06 11:36:32;;;;;;;0.10;0.10;;;18.20;99.90;;;;;;4942223;28;20215;-70
2021/07/06 11:39:01;;;;;;;0.00;0.00;;;18.20;99.90;;;;;;4941657;28;20277;-75
2021/07/06 11:41:28;;;;;;;0.20;0.20;;;18.30;99.90;;;;;;4938979;29;20836;-69
2021/07/06 11:43:56;;;;;;;0.67;0.67;;;18.40;99.90;;;;;;4941226;29;20206;-69
2021/07/06 11:46:23;;;;;;;0.00;0.00;;;18.40;99.90;;;;;;4938698;28;20314;-69
2021/07/06 11:48:52;;;;;;;0.00;0.00;;;18.70;99.90;;;;;;4941485;28;20203;-72
2021/07/06 11:51:22;;;;;;;0.10;0.10;;;18.70;99.90;;;;;;4943263;29;20204;-69
2021/07/06 11:53:56;;;;;;;0.43;0.27;;;18.70;99.90;;;;;;4942902;29;20222;-68
2021/07/06 11:56:24;;;;;;;6.60;0.33;;;19.10;99.90;;;;;;4943233;29;20759;-67
2021/07/06 11:58:52;;;;;;;1.50;0.20;;;19.50;99.90;;;;;;4941793;28;20568;-66
2021/07/06 12:01:19;;;;;;;0.30;0.27;;;19.80;99.90;;;;;;4940977;28;20301;-70
2021/07/06 12:03:46;;;;;;;0.83;0.57;;;20.30;99.90;;;;;;4939995;29;20762;-73
2021/07/06 12:06:16;;;;;;;0.00;0.00;;;20.60;99.90;;;;;;4939432;29;20253;-75
2021/07/06 12:08:45;;;;;;;0.77;0.23;;;20.70;99.90;;;;;;4948595;28;20199;-68
2021/07/06 12:11:13;;;;;;;0.73;0.47;;;20.90;99.90;;;;;;4945111;29;20751;-68
2021/07/06 12:13:47;;;;;;;0.32;0.10;;;21.20;99.90;;;;;;4937997;29;20290;-73
2021/07/06 12:16:15;;;;;;;0.00;0.00;;;21.30;99.90;;;;;;4937528;28;20786;-73
2021/07/06 12:18:51;;;;;;;0.30;0.10;;;21.40;99.90;;;;;;4943197;29;20198;-73
2021/07/06 12:21:26;;;;;;;0.15;0.10;;;21.20;99.90;;;;;;4937895;28;20269;-69
2021/07/06 12:23:56;;;;;;;0.00;0.00;;;21.00;99.90;;;;;;4935966;29;20210;-71
2021/07/06 12:26:23;;;;;;;0.17;0.17;;;20.80;99.90;;;;;;4941618;29;20723;-68
2021/07/06 12:28:50;;;;;;;0.20;0.20;;;20.40;99.90;;;;;;4939133;29;20257;-67
2021/07/06 12:31:27;;;;;;;0.00;0.00;;;20.10;99.90;;;;;;4940257;28;20871;-75
2021/07/06 12:34:07;;;;;;;0.20;0.20;;;19.80;99.90;;;;;;4939566;29;20206;-77
2021/07/06 12:36:36;;;;;;;0.80;0.40;;;19.60;99.90;;;;;;4939304;29;20285;-69
2021/07/06 12:39:17;;;;;;;0.00;0.00;;;19.30;99.90;;;;;;4939430;29;20621;-74
2021/07/06 12:41:47;;;;;;;0.10;0.10;;;19.20;99.90;;;;;;4941503;28;20265;-70
2021/07/06 12:44:17;;;;;;;0.00;0.00;;;18.70;99.90;;;;;;4938541;28;20199;-69
2021/07/06 12:46:44;;;;;;;0.00;0.00;;;18.00;99.90;;;;;;4937930;29;20681;-72
2021/07/06 12:49:11;;;;;;;1.30;0.40;;;17.40;99.90;;;;;;4937777;28;20211;-71
2021/07/06 12:51:58;;;;;;;0.30;0.30;;;16.80;99.90;;;;;;4946765;28;20210;-68
2021/07/06 12:54:33;;;;;;;0.37;0.20;;;16.30;99.90;;;;;;4945069;28;20285;-79
2021/07/06 12:57:01;;;;;;;0.00;0.00;;;15.90;99.90;;;;;;4952018;28;20404;-75
2021/07/06 12:59:30;;;;;;;0.30;0.23;;;15.70;99.90;;;;;;4963572;28;20210;-71